Terminal Aerodrome Forecast
Issued by NWS

Home | Current Version | Previous Version | Text Only | Print | Product List | Glossary On
Versions: 1 2 3 4 5 6 7 8 9 10 11
876
FTUS46 KHNX 300526
TAFBFL
TAF
KBFL 300526Z 3006/3106 34005KT P6SM SCT200
     FM301800 33015G23KT P6SM SCT050
     FM310300 32010G15KT P6SM SKC=

USA.gov is the U.S. government's official web portal to all federal, state and local government web resources and services.